This is the latest recevied weather packets stored in our database for station/object DA2PK. If no packets are shown the sender has not sent any weather packets the latest 10 day(s).
| Time | Temp. | Humidity | Pressure | Rain* | Wind** | Luminosity | Snow |
|---|---|---|---|---|---|---|---|
| 1777127421 | 16.67° C | 37% | 1019.5 hPa | 0 mm | - | 459 W/m² | - |
| 1777121440 | 14.44° C | 51% | 1020.3 hPa | 0 mm | - | 582 W/m² | - |
| 1777120821 | 13.89° C | 50% | 1020.5 hPa | 0 mm | - | 591 W/m² | - |
| 1777119621 | 13.33° C | 54% | 1020.6 hPa | 0 mm | - | 603 W/m² | - |
| 1777117261 | 12.22° C | 60% | 1020.8 hPa | 0 mm | - | 615 W/m² | - |
| 1777113622 | 10.56° C | 67% | 1021 hPa | 0 mm | - | 583 W/m² | - |
| 1777111221 | 9.44° C | 67% | 1021.4 hPa | 0 mm | - | 530 W/m² | - |
| 1777108221 | 10° C | 68% | 1021.5 hPa | 0 mm | - | 365 W/m² | - |
| 1777103421 | 8.33° C | 73% | 1021.3 hPa | 0 mm | - | 185 W/m² | - |
| 1777102844 | 8.33° C | 75% | 1021.4 hPa | 0 mm | - | 116 W/m² | - |
| 1777099821 | 7.78° C | 77% | 1021.2 hPa | 0 mm | - | 71 W/m² | - |
| 1777098021 | 7.78° C | 78% | 1021.2 hPa | 0 mm | - | 43 W/m² | - |
| 1777096823 | 7.78° C | 79% | 1021 hPa | 0 mm | - | 28 W/m² | - |
| 1777095621 | 7.78° C | 79% | 1020.7 hPa | 0 mm | - | 22 W/m² | - |
| 1777093820 | 7.78° C | 79% | 1020.5 hPa | 0 mm | - | 11 W/m² | - |
| 1777092042 | 7.78° C | 78% | 1020.5 hPa | 0 mm | - | 4 W/m² | - |
| 1777090222 | 7.78° C | 78% | 1020.4 hPa | 0 mm | - | 0 W/m² | - |
| 1777089022 | 7.78° C | 78% | 1020.5 hPa | 0 mm | - | 0 W/m² | - |
| 1777088421 | 7.78° C | 78% | 1020.4 hPa | 0 mm | - | 0 W/m² | - |
| 1777087842 | 7.78° C | 77% | 1020.3 hPa | 0 mm | - | 0 W/m² | - |
| 1777087221 | 7.78° C | 78% | 1020.4 hPa | 0 mm | - | 0 W/m² | - |
| 1777083022 | 8.33° C | 76% | 1020.7 hPa | 0 mm | - | 0 W/m² | - |
| 1777079422 | 8.89° C | 75% | 1020.9 hPa | 0 mm | - | 0 W/m² | - |
| 1777076420 | 9.44° C | 74% | 1021 hPa | 0 mm | - | 0 W/m² | - |
| 1777075224 | 9.44° C | 73% | 1021.3 hPa | 0 mm | - | 0 W/m² | - |
* Rain latest hour (hover to see other rain measurements)
** Current wind speed in m/s (hover to see current wind gust speed)